createdAt,value
2019-04-26T00:04:18.667Z,2.80
2019-04-26T00:09:26.760Z,3.60
2019-04-26T00:14:49.483Z,3.07
2019-04-26T00:19:54.064Z,3.30
2019-04-26T00:24:58.977Z,3.87
2019-04-26T00:30:03.646Z,3.77
2019-04-26T00:35:08.359Z,3.80
2019-04-26T00:40:14.339Z,3.87
2019-04-26T00:45:20.880Z,4.40
2019-04-26T00:50:27.064Z,4.30
2019-04-26T00:55:34.254Z,4.37
2019-04-26T01:00:39.233Z,4.80
2019-04-26T01:05:44.078Z,4.40
2019-04-26T01:10:48.765Z,4.30
2019-04-26T01:15:53.358Z,4.90
2019-04-26T01:21:00.826Z,5.53
2019-04-26T01:26:19.261Z,5.73
2019-04-26T01:31:26.291Z,5.93
2019-04-26T01:36:32.023Z,5.97
2019-04-26T01:41:43.713Z,6.90
2019-04-26T01:46:48.867Z,7.17
2019-04-26T01:52:02.763Z,7.13
2019-04-26T01:57:07.493Z,7.27
2019-04-26T02:02:21.273Z,7.80
2019-04-26T02:07:40.306Z,8.00
2019-04-26T02:12:47.487Z,8.63
2019-04-26T02:17:54.419Z,9.20
2019-04-26T02:23:08.364Z,9.13
2019-04-26T02:28:12.981Z,10.60
2019-04-26T02:33:17.646Z,10.23
2019-04-26T02:38:22.240Z,10.33
2019-04-26T02:43:30.217Z,11.53
2019-04-26T02:48:57.434Z,11.70
2019-04-26T02:54:13.863Z,12.57
2019-04-26T02:59:41.150Z,12.97
2019-04-26T03:04:49.021Z,13.63
2019-04-26T03:09:55.715Z,13.20
2019-04-26T03:15:13.982Z,14.20
2019-04-26T03:20:20.894Z,15.07
2019-04-26T03:25:50.611Z,14.53
2019-04-26T03:31:06.498Z,15.57
2019-04-26T03:36:44.248Z,14.03
2019-04-26T03:42:21.844Z,15.07
2019-04-26T03:47:30.069Z,15.73
2019-04-26T03:53:19.458Z,15.50
2019-04-26T03:58:32.791Z,15.70
2019-04-26T04:03:55.975Z,16.73
2019-04-26T04:09:07.397Z,16.60
2019-04-26T04:14:19.494Z,17.70
2019-04-26T04:20:04.939Z,17.90
2019-04-26T04:25:13.433Z,17.90
2019-04-26T04:30:45.892Z,18.90
2019-04-26T04:35:55.554Z,18.93
2019-04-26T04:41:16.435Z,18.53
2019-04-26T04:46:56.085Z,19.67
2019-04-26T04:52:28.099Z,19.47
2019-04-26T04:57:41.975Z,21.20
2019-04-26T05:03:01.983Z,20.00
2019-04-26T05:08:23.505Z,20.13
2019-04-26T05:13:35.330Z,20.33
2019-04-26T05:19:30.578Z,19.87
2019-04-26T05:25:03.699Z,20.80
2019-04-26T05:31:15.351Z,18.70
2019-04-26T05:36:35.394Z,21.53
2019-04-26T05:42:43.496Z,21.27
2019-04-26T05:48:08.239Z,21.60
2019-04-26T05:53:50.132Z,21.00
2019-04-26T05:59:31.696Z,19.73
2019-04-26T06:05:12.622Z,19.30
2019-04-26T06:10:34.263Z,20.67
2019-04-26T06:15:54.389Z,21.40
2019-04-26T06:21:05.193Z,21.80
2019-04-26T06:26:49.460Z,22.07
2019-04-26T06:32:04.690Z,22.50
2019-04-26T06:37:26.553Z,22.53
2019-04-26T06:43:00.789Z,22.83
2019-04-26T06:48:17.734Z,21.70
2019-04-26T06:53:43.389Z,19.43
2019-04-26T06:59:03.430Z,19.10
2019-04-26T07:04:31.382Z,17.17
2019-04-26T07:09:50.254Z,17.97
2019-04-26T07:15:34.341Z,19.30
2019-04-26T07:21:00.590Z,17.57
2019-04-26T07:26:27.597Z,17.67
2019-04-26T07:31:47.440Z,16.20
2019-04-26T07:37:19.398Z,15.80
2019-04-26T07:42:47.932Z,16.23
2019-04-26T07:48:34.110Z,14.73
2019-04-26T07:53:50.077Z,15.17
2019-04-26T07:59:23.210Z,15.97
2019-04-26T08:04:35.611Z,14.90
2019-04-26T08:09:46.253Z,15.17
2019-04-26T08:15:32.136Z,14.53
2019-04-26T08:21:02.455Z,12.07
2019-04-26T08:26:13.413Z,12.63
2019-04-26T08:31:24.287Z,11.80
2019-04-26T08:36:33.009Z,12.47
2019-04-26T08:41:40.222Z,12.03
2019-04-26T08:47:01.184Z,17.17
2019-04-26T08:52:14.403Z,8.10
2019-04-26T08:57:17.034Z,8.77
2019-04-26T09:02:53.821Z,8.80
2019-04-26T09:08:00.641Z,7.27
2019-04-26T09:13:08.438Z,7.77
2019-04-26T09:18:13.137Z,8.60
2019-04-26T09:23:40.384Z,5.43
2019-04-26T09:29:12.501Z,6.10
2019-04-26T09:34:18.171Z,6.57
2019-04-26T09:39:23.488Z,5.57
2019-04-26T09:44:41.158Z,5.40
2019-04-26T09:49:51.497Z,5.37
2019-04-26T09:54:57.056Z,4.93
2019-04-26T10:00:02.909Z,5.73
2019-04-26T10:05:11.965Z,5.80
2019-04-26T10:10:22.967Z,5.27
2019-04-26T10:15:29.290Z,5.13
2019-04-26T10:20:33.930Z,5.57
2019-04-26T10:25:38.607Z,4.70
2019-04-26T10:30:43.968Z,4.43
2019-04-26T10:35:52.496Z,4.80
2019-04-26T10:40:55.321Z,4.10
2019-04-26T10:45:59.881Z,3.70
2019-04-26T10:51:07.395Z,4.00
2019-04-26T10:56:35.224Z,5.43
2019-04-26T11:01:40.033Z,4.30
2019-04-26T11:06:44.874Z,4.10
2019-04-26T11:11:49.519Z,3.93
2019-04-26T11:16:54.563Z,5.60
2019-04-26T11:21:59.161Z,5.70
2019-04-26T11:27:05.283Z,4.73
2019-04-26T11:32:10.346Z,5.67
2019-04-26T11:37:17.798Z,6.33
2019-04-26T11:42:21.204Z,7.27
2019-04-26T11:47:25.808Z,7.13
2019-04-26T11:52:32.235Z,6.87
2019-04-26T11:57:39.903Z,6.50
2019-04-26T12:02:46.414Z,6.67
2019-04-26T12:07:53.853Z,6.70
2019-04-26T12:13:05.639Z,7.13
2019-04-26T12:18:05.491Z,7.07
2019-04-26T12:23:13.737Z,6.23
2019-04-26T12:28:17.421Z,6.23
2019-04-26T12:33:22.021Z,6.33
2019-04-26T12:38:28.524Z,6.07
2019-04-26T12:43:32.930Z,5.53
2019-04-26T12:48:37.511Z,6.13
2019-04-26T12:53:42.079Z,5.83
2019-04-26T12:58:49.982Z,4.80
2019-04-26T13:04:10.916Z,5.13
2019-04-26T13:09:22.005Z,4.83
2019-04-26T13:14:52.562Z,4.43
2019-04-26T13:19:57.141Z,4.10
2019-04-26T13:25:01.976Z,4.77
2019-04-26T13:30:10.777Z,4.23
2019-04-26T13:35:14.249Z,4.13
2019-04-26T13:40:18.894Z,4.23
2019-04-26T13:45:41.433Z,3.97
2019-04-26T13:50:57.347Z,3.80
2019-04-26T13:56:01.937Z,3.70
2019-04-26T14:01:07.447Z,3.23
2019-04-26T14:06:12.097Z,3.03
2019-04-26T14:11:20.070Z,2.63
2019-04-26T14:16:22.989Z,2.93
2019-04-26T14:21:29.147Z,2.70
2019-04-26T14:26:41.478Z,2.60
2019-04-26T14:31:47.200Z,2.57
2019-04-26T14:37:05.577Z,2.50
2019-04-26T14:41:59.152Z,2.30
2019-04-26T14:47:13.942Z,2.37
2019-04-26T14:52:10.235Z,2.17
2019-04-26T14:57:21.411Z,2.30
2019-04-26T15:02:43.074Z,1.90
2019-04-26T15:07:51.000Z,2.17
2019-04-26T15:12:58.510Z,2.23
2019-04-26T15:17:59.414Z,1.97
2019-04-26T15:23:04.823Z,2.50
2019-04-26T15:28:12.055Z,2.27
2019-04-26T15:33:15.687Z,2.27
2019-04-26T15:38:20.922Z,2.17
2019-04-26T15:43:39.661Z,3.20
2019-04-26T15:48:54.661Z,3.10
2019-04-26T15:53:57.471Z,2.67
2019-04-26T15:59:02.550Z,2.83
2019-04-26T16:04:07.278Z,2.70
2019-04-26T16:09:13.965Z,2.93
2019-04-26T16:14:24.942Z,2.50
2019-04-26T16:19:27.830Z,3.33
2019-04-26T16:24:34.517Z,3.73
2019-04-26T16:29:58.364Z,4.00
2019-04-26T16:34:57.766Z,3.67
2019-04-26T16:40:03.401Z,5.17
2019-04-26T16:45:13.847Z,4.27
2019-04-26T16:50:24.001Z,4.30
2019-04-26T16:55:25.532Z,4.03
2019-04-26T17:00:48.102Z,4.50
2019-04-26T17:05:47.766Z,4.47
2019-04-26T17:10:42.817Z,5.43
2019-04-26T17:15:47.496Z,5.23
2019-04-26T17:20:53.147Z,4.87
2019-04-26T17:26:18.928Z,6.67
2019-04-26T17:31:23.591Z,8.07
2019-04-26T17:36:28.300Z,7.67
2019-04-26T17:41:33.325Z,7.53
2019-04-26T17:46:39.347Z,7.97
2019-04-26T17:51:44.481Z,8.37
2019-04-26T17:56:51.516Z,9.63
2019-04-26T18:02:00.928Z,9.50
2019-04-26T18:07:17.949Z,9.03
2019-04-26T18:12:12.189Z,8.73
2019-04-26T18:17:27.390Z,8.10
2019-04-26T18:22:39.299Z,8.17
2019-04-26T18:27:56.186Z,7.40
2019-04-26T18:33:02.920Z,7.20
2019-04-26T18:38:12.521Z,6.40
2019-04-26T18:43:21.677Z,6.00
2019-04-26T18:48:25.102Z,5.77
2019-04-26T18:54:09.383Z,5.80
2019-04-26T18:59:17.642Z,5.40
2019-04-26T19:04:23.618Z,4.07
2019-04-26T19:09:28.914Z,3.60
2019-04-26T19:15:02.741Z,3.40
2019-04-26T19:20:14.481Z,3.60
2019-04-26T19:25:23.131Z,3.50
2019-04-26T19:30:26.211Z,3.70
2019-04-26T19:35:32.807Z,3.80
2019-04-26T19:40:39.323Z,3.67
2019-04-26T19:46:23.422Z,4.00
2019-04-26T19:51:43.673Z,4.60
2019-04-26T19:56:56.651Z,5.13
2019-04-26T20:02:02.733Z,5.00
2019-04-26T20:12:25.239Z,4.20
2019-04-26T20:17:29.721Z,4.40
2019-04-26T20:22:34.299Z,4.97
2019-04-26T20:27:39.157Z,6.17
2019-04-26T20:32:44.842Z,5.57
2019-04-26T20:37:56.020Z,4.93
2019-04-26T20:43:03.377Z,5.17
2019-04-26T20:48:05.811Z,5.33
2019-04-26T20:53:12.011Z,5.43
2019-04-26T20:58:22.514Z,5.20
2019-04-26T21:03:28.136Z,4.20
2019-04-26T21:08:33.732Z,4.77
2019-04-26T21:13:38.329Z,4.30
2019-04-26T21:18:44.325Z,4.23
2019-04-26T21:23:50.678Z,3.90
2019-04-26T21:29:13.363Z,3.30
2019-04-26T21:34:20.710Z,3.40
2019-04-26T21:39:39.396Z,3.40
2019-04-26T21:44:44.704Z,4.40
2019-04-26T21:49:53.980Z,4.80
2019-04-26T21:54:56.490Z,5.37
2019-04-26T22:00:01.485Z,5.43
2019-04-26T22:05:11.617Z,6.50
2019-04-26T22:10:27.591Z,5.90
2019-04-26T22:15:40.077Z,5.90
2019-04-26T22:21:03.849Z,5.80
2019-04-26T22:26:09.450Z,5.60
2019-04-26T22:31:14.105Z,5.73
2019-04-26T22:36:19.029Z,6.03
2019-04-26T22:41:24.435Z,6.27
2019-04-26T22:46:54.358Z,7.90
2019-04-26T22:51:58.938Z,8.07
2019-04-26T22:57:04.005Z,8.27
2019-04-26T23:02:13.530Z,8.47
2019-04-26T23:07:22.401Z,8.43
2019-04-26T23:12:38.298Z,7.50
2019-04-26T23:17:56.106Z,7.30
2019-04-26T23:23:05.235Z,9.03
2019-04-26T23:28:11.257Z,9.90
2019-04-26T23:33:15.833Z,14.07
2019-04-26T23:38:20.488Z,13.73
2019-04-26T23:43:25.670Z,10.83
2019-04-26T23:48:32.842Z,9.93
2019-04-26T23:53:38.017Z,8.07
2019-04-26T23:58:44.147Z,7.73
